sensor_id;sensor_type;location;lat;lon;timestamp;P1;durP1;ratioP1;P2;durP2;ratioP2
61025;SDS011;46911;32.650;-16.902;2022-10-16T00:01:06;14.15;;;4.80;;
61025;SDS011;46911;32.650;-16.902;2022-10-16T00:03:09;10.32;;;4.70;;
61025;SDS011;46911;32.650;-16.902;2022-10-16T00:05:11;8.00;;;4.75;;
61025;SDS011;46911;32.650;-16.902;2022-10-16T00:07:12;12.52;;;4.65;;
61025;SDS011;46911;32.650;-16.902;2022-10-16T00:09:16;7.90;;;4.47;;
61025;SDS011;46911;32.650;-16.902;2022-10-16T00:11:24;9.73;;;4.43;;
61025;SDS011;46911;32.650;-16.902;2022-10-16T00:13:35;5.93;;;4.05;;
61025;SDS011;46911;32.650;-16.902;2022-10-16T00:15:37;15.25;;;4.20;;
61025;SDS011;46911;32.650;-16.902;2022-10-16T00:17:39;8.82;;;3.67;;
61025;SDS011;46911;32.650;-16.902;2022-10-16T00:19:46;10.00;;;3.80;;
61025;SDS011;46911;32.650;-16.902;2022-10-16T00:21:47;7.47;;;3.88;;
61025;SDS011;46911;32.650;-16.902;2022-10-16T00:23:51;12.52;;;4.18;;
61025;SDS011;46911;32.650;-16.902;2022-10-16T00:26:00;9.35;;;3.30;;
61025;SDS011;46911;32.650;-16.902;2022-10-16T00:28:02;7.57;;;3.65;;
61025;SDS011;46911;32.650;-16.902;2022-10-16T00:30:03;10.15;;;3.38;;
61025;SDS011;46911;32.650;-16.902;2022-10-16T00:32:07;11.23;;;3.72;;
61025;SDS011;46911;32.650;-16.902;2022-10-16T00:34:08;10.73;;;3.17;;
61025;SDS011;46911;32.650;-16.902;2022-10-16T00:36:13;6.80;;;3.45;;
61025;SDS011;46911;32.650;-16.902;2022-10-16T00:38:16;10.63;;;3.40;;
61025;SDS011;46911;32.650;-16.902;2022-10-16T00:40:17;7.35;;;3.63;;
61025;SDS011;46911;32.650;-16.902;2022-10-16T00:42:18;7.20;;;3.05;;
61025;SDS011;46911;32.650;-16.902;2022-10-16T00:46:47;8.88;;;3.55;;
61025;SDS011;46911;32.650;-16.902;2022-10-16T00:49:22;8.10;;;3.28;;
61025;SDS011;46911;32.650;-16.902;2022-10-16T00:51:18;9.27;;;3.15;;
61025;SDS011;46911;32.650;-16.902;2022-10-16T00:53:27;7.55;;;3.88;;
61025;SDS011;46911;32.650;-16.902;2022-10-16T00:55:28;16.00;;;3.42;;
61025;SDS011;46911;32.650;-16.902;2022-10-16T00:57:30;6.72;;;3.33;;
61025;SDS011;46911;32.650;-16.902;2022-10-16T00:59:38;3.90;;;2.80;;
61025;SDS011;46911;32.650;-16.902;2022-10-16T01:01:40;12.80;;;3.80;;
61025;SDS011;46911;32.650;-16.902;2022-10-16T01:03:44;10.00;;;3.72;;
61025;SDS011;46911;32.650;-16.902;2022-10-16T01:05:47;9.52;;;3.75;;
61025;SDS011;46911;32.650;-16.902;2022-10-16T01:07:58;8.48;;;3.83;;
61025;SDS011;46911;32.650;-16.902;2022-10-16T01:12:16;8.70;;;4.00;;
61025;SDS011;46911;32.650;-16.902;2022-10-16T01:14:32;10.18;;;4.03;;
61025;SDS011;46911;32.650;-16.902;2022-10-16T01:17:00;11.70;;;4.45;;
61025;SDS011;46911;32.650;-16.902;2022-10-16T01:19:12;9.98;;;3.65;;
61025;SDS011;46911;32.650;-16.902;2022-10-16T01:21:26;14.85;;;3.85;;
61025;SDS011;46911;32.650;-16.902;2022-10-16T01:26:20;10.20;;;4.30;;
61025;SDS011;46911;32.650;-16.902;2022-10-16T01:31:10;9.77;;;3.90;;
61025;SDS011;46911;32.650;-16.902;2022-10-16T01:33:21;9.75;;;4.18;;
61025;SDS011;46911;32.650;-16.902;2022-10-16T01:35:32;15.50;;;3.75;;
61025;SDS011;46911;32.650;-16.902;2022-10-16T01:37:42;10.27;;;3.83;;
61025;SDS011;46911;32.650;-16.902;2022-10-16T01:39:50;9.07;;;3.90;;
61025;SDS011;46911;32.650;-16.902;2022-10-16T01:41:58;8.57;;;3.30;;
61025;SDS011;46911;32.650;-16.902;2022-10-16T01:44:19;10.13;;;3.53;;
61025;SDS011;46911;32.650;-16.902;2022-10-16T01:46:25;13.75;;;3.45;;
61025;SDS011;46911;32.650;-16.902;2022-10-16T01:48:26;12.35;;;3.88;;
61025;SDS011;46911;32.650;-16.902;2022-10-16T01:50:31;14.48;;;4.68;;
61025;SDS011;46911;32.650;-16.902;2022-10-16T01:52:37;11.57;;;3.53;;
61025;SDS011;46911;32.650;-16.902;2022-10-16T01:54:42;7.70;;;3.38;;
61025;SDS011;46911;32.650;-16.902;2022-10-16T01:56:49;14.23;;;3.08;;
61025;SDS011;46911;32.650;-16.902;2022-10-16T01:59:31;7.45;;;2.78;;
61025;SDS011;46911;32.650;-16.902;2022-10-16T02:01:30;6.18;;;2.70;;
61025;SDS011;46911;32.650;-16.902;2022-10-16T02:03:38;13.82;;;3.38;;
61025;SDS011;46911;32.650;-16.902;2022-10-16T02:05:52;9.68;;;2.60;;
61025;SDS011;46911;32.650;-16.902;2022-10-16T02:07:55;14.57;;;3.03;;
61025;SDS011;46911;32.650;-16.902;2022-10-16T02:09:57;9.27;;;2.50;;
61025;SDS011;46911;32.650;-16.902;2022-10-16T02:11:57;9.45;;;2.40;;
61025;SDS011;46911;32.650;-16.902;2022-10-16T02:14:06;11.32;;;2.60;;
61025;SDS011;46911;32.650;-16.902;2022-10-16T02:16:10;7.70;;;2.33;;
61025;SDS011;46911;32.650;-16.902;2022-10-16T02:18:14;8.43;;;2.95;;
61025;SDS011;46911;32.650;-16.902;2022-10-16T02:20:16;6.60;;;2.42;;
61025;SDS011;46911;32.650;-16.902;2022-10-16T02:22:24;10.52;;;2.97;;
61025;SDS011;46911;32.650;-16.902;2022-10-16T02:26:41;8.27;;;2.30;;
61025;SDS011;46911;32.650;-16.902;2022-10-16T02:28:51;12.98;;;2.20;;
61025;SDS011;46911;32.650;-16.902;2022-10-16T02:31:06;12.02;;;2.63;;
61025;SDS011;46911;32.650;-16.902;2022-10-16T02:33:11;13.45;;;3.38;;
61025;SDS011;46911;32.650;-16.902;2022-10-16T02:35:17;13.55;;;2.38;;
61025;SDS011;46911;32.650;-16.902;2022-10-16T02:37:20;7.53;;;2.10;;
61025;SDS011;46911;32.650;-16.902;2022-10-16T02:39:24;3.80;;;1.88;;
61025;SDS011;46911;32.650;-16.902;2022-10-16T02:41:26;6.13;;;1.92;;
61025;SDS011;46911;32.650;-16.902;2022-10-16T02:43:34;11.65;;;2.30;;
61025;SDS011;46911;32.650;-16.902;2022-10-16T02:45:35;13.77;;;2.13;;
61025;SDS011;46911;32.650;-16.902;2022-10-16T02:47:38;10.43;;;2.20;;
61025;SDS011;46911;32.650;-16.902;2022-10-16T02:49:39;4.57;;;1.75;;
61025;SDS011;46911;32.650;-16.902;2022-10-16T02:51:42;11.15;;;2.28;;
61025;SDS011;46911;32.650;-16.902;2022-10-16T02:53:43;9.48;;;2.72;;
61025;SDS011;46911;32.650;-16.902;2022-10-16T02:55:44;10.52;;;1.83;;
61025;SDS011;46911;32.650;-16.902;2022-10-16T02:57:45;8.00;;;1.48;;
61025;SDS011;46911;32.650;-16.902;2022-10-16T02:59:46;14.27;;;2.65;;
61025;SDS011;46911;32.650;-16.902;2022-10-16T03:01:47;18.27;;;2.45;;
61025;SDS011;46911;32.650;-16.902;2022-10-16T03:03:48;6.68;;;2.15;;
61025;SDS011;46911;32.650;-16.902;2022-10-16T03:05:48;6.50;;;1.80;;
61025;SDS011;46911;32.650;-16.902;2022-10-16T03:07:50;11.48;;;2.63;;
61025;SDS011;46911;32.650;-16.902;2022-10-16T03:09:54;16.90;;;2.42;;
61025;SDS011;46911;32.650;-16.902;2022-10-16T03:11:55;8.05;;;1.98;;
61025;SDS011;46911;32.650;-16.902;2022-10-16T03:13:58;9.90;;;2.50;;
61025;SDS011;46911;32.650;-16.902;2022-10-16T03:16:02;10.07;;;1.42;;
61025;SDS011;46911;32.650;-16.902;2022-10-16T03:18:05;13.70;;;2.78;;
61025;SDS011;46911;32.650;-16.902;2022-10-16T03:20:06;7.28;;;1.85;;
61025;SDS011;46911;32.650;-16.902;2022-10-16T03:22:07;9.82;;;1.70;;
61025;SDS011;46911;32.650;-16.902;2022-10-16T03:24:08;10.18;;;1.70;;
61025;SDS011;46911;32.650;-16.902;2022-10-16T03:26:09;16.08;;;1.63;;
61025;SDS011;46911;32.650;-16.902;2022-10-16T03:28:10;12.65;;;2.35;;
61025;SDS011;46911;32.650;-16.902;2022-10-16T03:30:11;8.82;;;2.35;;
61025;SDS011;46911;32.650;-16.902;2022-10-16T03:32:18;5.93;;;1.85;;
61025;SDS011;46911;32.650;-16.902;2022-10-16T03:34:20;19.65;;;2.17;;
61025;SDS011;46911;32.650;-16.902;2022-10-16T03:36:23;11.82;;;2.22;;
61025;SDS011;46911;32.650;-16.902;2022-10-16T03:38:26;8.25;;;2.10;;
61025;SDS011;46911;32.650;-16.902;2022-10-16T03:40:27;7.32;;;2.25;;
61025;SDS011;46911;32.650;-16.902;2022-10-16T03:42:32;12.48;;;2.20;;
61025;SDS011;46911;32.650;-16.902;2022-10-16T03:44:33;8.10;;;1.77;;
61025;SDS011;46911;32.650;-16.902;2022-10-16T03:46:36;8.55;;;2.13;;
61025;SDS011;46911;32.650;-16.902;2022-10-16T03:48:39;10.18;;;2.45;;
61025;SDS011;46911;32.650;-16.902;2022-10-16T03:50:42;9.27;;;2.17;;
61025;SDS011;46911;32.650;-16.902;2022-10-16T03:52:46;13.35;;;2.33;;
61025;SDS011;46911;32.650;-16.902;2022-10-16T03:54:47;11.48;;;3.47;;
61025;SDS011;46911;32.650;-16.902;2022-10-16T03:56:48;3.53;;;1.60;;
61025;SDS011;46911;32.650;-16.902;2022-10-16T03:58:52;8.77;;;1.80;;
61025;SDS011;46911;32.650;-16.902;2022-10-16T04:00:53;12.50;;;2.28;;
61025;SDS011;46911;32.650;-16.902;2022-10-16T04:02:57;13.70;;;2.13;;
61025;SDS011;46911;32.650;-16.902;2022-10-16T04:05:00;11.63;;;2.10;;
61025;SDS011;46911;32.650;-16.902;2022-10-16T04:07:01;7.18;;;2.22;;
61025;SDS011;46911;32.650;-16.902;2022-10-16T04:09:04;10.43;;;2.67;;
61025;SDS011;46911;32.650;-16.902;2022-10-16T04:11:05;4.20;;;1.63;;
61025;SDS011;46911;32.650;-16.902;2022-10-16T04:13:09;8.10;;;2.28;;
61025;SDS011;46911;32.650;-16.902;2022-10-16T04:15:10;5.85;;;1.92;;
61025;SDS011;46911;32.650;-16.902;2022-10-16T04:17:11;6.35;;;1.90;;
61025;SDS011;46911;32.650;-16.902;2022-10-16T04:19:14;12.95;;;2.55;;
61025;SDS011;46911;32.650;-16.902;2022-10-16T04:21:15;10.95;;;2.00;;
61025;SDS011;46911;32.650;-16.902;2022-10-16T04:23:18;14.50;;;2.25;;
61025;SDS011;46911;32.650;-16.902;2022-10-16T04:25:20;17.83;;;2.03;;
61025;SDS011;46911;32.650;-16.902;2022-10-16T04:27:22;13.30;;;1.92;;
61025;SDS011;46911;32.650;-16.902;2022-10-16T04:29:26;6.38;;;1.77;;
61025;SDS011;46911;32.650;-16.902;2022-10-16T04:31:29;9.82;;;2.10;;
61025;SDS011;46911;32.650;-16.902;2022-10-16T04:33:32;11.18;;;2.08;;
61025;SDS011;46911;32.650;-16.902;2022-10-16T04:35:33;11.43;;;1.88;;
61025;SDS011;46911;32.650;-16.902;2022-10-16T04:37:37;12.00;;;2.28;;
61025;SDS011;46911;32.650;-16.902;2022-10-16T04:39:40;25.55;;;2.13;;
61025;SDS011;46911;32.650;-16.902;2022-10-16T04:41:44;9.18;;;2.08;;
61025;SDS011;46911;32.650;-16.902;2022-10-16T04:43:47;9.25;;;1.88;;
61025;SDS011;46911;32.650;-16.902;2022-10-16T04:45:47;10.07;;;2.13;;
61025;SDS011;46911;32.650;-16.902;2022-10-16T04:47:51;5.05;;;1.58;;
61025;SDS011;46911;32.650;-16.902;2022-10-16T04:49:56;10.18;;;1.48;;
61025;SDS011;46911;32.650;-16.902;2022-10-16T04:51:57;5.05;;;1.33;;
61025;SDS011;46911;32.650;-16.902;2022-10-16T04:53:58;15.15;;;1.77;;
61025;SDS011;46911;32.650;-16.902;2022-10-16T04:56:01;10.40;;;1.80;;
61025;SDS011;46911;32.650;-16.902;2022-10-16T04:58:06;11.75;;;1.70;;
61025;SDS011;46911;32.650;-16.902;2022-10-16T05:00:09;15.45;;;1.90;;
61025;SDS011;46911;32.650;-16.902;2022-10-16T05:02:16;8.65;;;1.95;;
61025;SDS011;46911;32.650;-16.902;2022-10-16T05:04:18;9.68;;;1.60;;
61025;SDS011;46911;32.650;-16.902;2022-10-16T05:06:22;9.80;;;1.40;;
61025;SDS011;46911;32.650;-16.902;2022-10-16T05:08:25;12.32;;;2.03;;
61025;SDS011;46911;32.650;-16.902;2022-10-16T05:10:26;11.75;;;1.70;;
61025;SDS011;46911;32.650;-16.902;2022-10-16T05:12:29;7.40;;;1.80;;
61025;SDS011;46911;32.650;-16.902;2022-10-16T05:14:33;9.52;;;1.58;;
61025;SDS011;46911;32.650;-16.902;2022-10-16T05:16:41;7.82;;;1.50;;
61025;SDS011;46911;32.650;-16.902;2022-10-16T05:18:42;12.95;;;2.35;;
61025;SDS011;46911;32.650;-16.902;2022-10-16T05:20:43;5.85;;;1.55;;
61025;SDS011;46911;32.650;-16.902;2022-10-16T05:22:46;11.07;;;1.88;;
61025;SDS011;46911;32.650;-16.902;2022-10-16T05:24:49;4.53;;;1.75;;
61025;SDS011;46911;32.650;-16.902;2022-10-16T05:26:55;7.93;;;1.38;;
61025;SDS011;46911;32.650;-16.902;2022-10-16T05:28:56;7.07;;;1.98;;
61025;SDS011;46911;32.650;-16.902;2022-10-16T05:31:03;11.73;;;1.67;;
61025;SDS011;46911;32.650;-16.902;2022-10-16T05:33:12;3.53;;;1.30;;
61025;SDS011;46911;32.650;-16.902;2022-10-16T05:35:18;11.68;;;1.85;;
61025;SDS011;46911;32.650;-16.902;2022-10-16T05:37:19;8.73;;;1.52;;
61025;SDS011;46911;32.650;-16.902;2022-10-16T05:39:22;11.55;;;1.60;;
61025;SDS011;46911;32.650;-16.902;2022-10-16T05:41:23;12.02;;;1.75;;
61025;SDS011;46911;32.650;-16.902;2022-10-16T05:43:29;16.85;;;2.15;;
61025;SDS011;46911;32.650;-16.902;2022-10-16T05:45:34;6.28;;;1.70;;
61025;SDS011;46911;32.650;-16.902;2022-10-16T05:47:35;5.35;;;1.58;;
61025;SDS011;46911;32.650;-16.902;2022-10-16T05:49:38;8.38;;;1.63;;
61025;SDS011;46911;32.650;-16.902;2022-10-16T05:51:44;5.72;;;1.30;;
61025;SDS011;46911;32.650;-16.902;2022-10-16T05:53:45;11.35;;;1.48;;
61025;SDS011;46911;32.650;-16.902;2022-10-16T05:55:51;10.40;;;1.40;;
61025;SDS011;46911;32.650;-16.902;2022-10-16T05:57:55;12.30;;;1.67;;
61025;SDS011;46911;32.650;-16.902;2022-10-16T05:59:56;10.68;;;1.70;;
61025;SDS011;46911;32.650;-16.902;2022-10-16T06:01:59;10.35;;;1.42;;
61025;SDS011;46911;32.650;-16.902;2022-10-16T06:04:03;12.57;;;1.75;;
61025;SDS011;46911;32.650;-16.902;2022-10-16T06:06:17;7.05;;;1.10;;
61025;SDS011;46911;32.650;-16.902;2022-10-16T06:08:21;9.52;;;1.70;;
61025;SDS011;46911;32.650;-16.902;2022-10-16T06:10:23;10.48;;;1.48;;
61025;SDS011;46911;32.650;-16.902;2022-10-16T06:12:23;15.35;;;2.10;;
61025;SDS011;46911;32.650;-16.902;2022-10-16T06:14:26;6.72;;;1.27;;
61025;SDS011;46911;32.650;-16.902;2022-10-16T06:16:28;7.03;;;1.60;;
61025;SDS011;46911;32.650;-16.902;2022-10-16T06:18:32;8.25;;;1.70;;
61025;SDS011;46911;32.650;-16.902;2022-10-16T06:20:35;7.25;;;1.90;;
61025;SDS011;46911;32.650;-16.902;2022-10-16T06:22:40;10.43;;;2.25;;
61025;SDS011;46911;32.650;-16.902;2022-10-16T06:24:40;7.60;;;1.60;;
61025;SDS011;46911;32.650;-16.902;2022-10-16T06:26:44;14.25;;;1.67;;
61025;SDS011;46911;32.650;-16.902;2022-10-16T06:28:45;14.55;;;1.95;;
61025;SDS011;46911;32.650;-16.902;2022-10-16T06:30:49;11.77;;;1.90;;
61025;SDS011;46911;32.650;-16.902;2022-10-16T06:32:59;8.95;;;1.30;;
61025;SDS011;46911;32.650;-16.902;2022-10-16T06:35:00;11.25;;;2.13;;
61025;SDS011;46911;32.650;-16.902;2022-10-16T06:37:01;7.63;;;2.55;;
61025;SDS011;46911;32.650;-16.902;2022-10-16T06:39:02;9.98;;;1.52;;
61025;SDS011;46911;32.650;-16.902;2022-10-16T06:41:12;11.65;;;2.03;;
61025;SDS011;46911;32.650;-16.902;2022-10-16T06:43:15;17.83;;;2.67;;
61025;SDS011;46911;32.650;-16.902;2022-10-16T06:45:16;13.52;;;2.58;;
61025;SDS011;46911;32.650;-16.902;2022-10-16T06:47:19;7.10;;;2.17;;
61025;SDS011;46911;32.650;-16.902;2022-10-16T06:49:22;11.80;;;1.98;;
61025;SDS011;46911;32.650;-16.902;2022-10-16T06:51:23;8.52;;;1.63;;
61025;SDS011;46911;32.650;-16.902;2022-10-16T06:53:31;11.45;;;1.55;;
61025;SDS011;46911;32.650;-16.902;2022-10-16T06:55:36;10.60;;;1.95;;
61025;SDS011;46911;32.650;-16.902;2022-10-16T06:57:37;6.78;;;1.92;;
61025;SDS011;46911;32.650;-16.902;2022-10-16T06:59:38;19.75;;;2.25;;
61025;SDS011;46911;32.650;-16.902;2022-10-16T07:01:45;22.75;;;1.70;;
61025;SDS011;46911;32.650;-16.902;2022-10-16T07:03:46;9.15;;;2.28;;
61025;SDS011;46911;32.650;-16.902;2022-10-16T07:05:47;7.50;;;2.00;;
61025;SDS011;46911;32.650;-16.902;2022-10-16T07:07:48;13.35;;;1.77;;
61025;SDS011;46911;32.650;-16.902;2022-10-16T07:09:51;8.10;;;1.80;;
61025;SDS011;46911;32.650;-16.902;2022-10-16T07:11:52;9.35;;;1.40;;
61025;SDS011;46911;32.650;-16.902;2022-10-16T07:13:53;9.70;;;1.88;;
61025;SDS011;46911;32.650;-16.902;2022-10-16T07:15:54;15.98;;;2.03;;
61025;SDS011;46911;32.650;-16.902;2022-10-16T07:17:55;16.65;;;2.00;;
61025;SDS011;46911;32.650;-16.902;2022-10-16T07:19:56;18.63;;;2.15;;
61025;SDS011;46911;32.650;-16.902;2022-10-16T07:21:57;14.63;;;1.35;;
61025;SDS011;46911;32.650;-16.902;2022-10-16T07:24:02;16.48;;;2.05;;
61025;SDS011;46911;32.650;-16.902;2022-10-16T07:26:10;16.40;;;1.80;;
61025;SDS011;46911;32.650;-16.902;2022-10-16T07:28:13;10.93;;;1.65;;
61025;SDS011;46911;32.650;-16.902;2022-10-16T07:30:14;4.40;;;1.50;;
61025;SDS011;46911;32.650;-16.902;2022-10-16T07:32:20;7.63;;;1.48;;
61025;SDS011;46911;32.650;-16.902;2022-10-16T07:34:24;6.90;;;1.55;;
61025;SDS011;46911;32.650;-16.902;2022-10-16T07:36:25;20.35;;;2.08;;
61025;SDS011;46911;32.650;-16.902;2022-10-16T07:38:26;10.98;;;2.08;;
61025;SDS011;46911;32.650;-16.902;2022-10-16T07:40:29;9.13;;;1.65;;
61025;SDS011;46911;32.650;-16.902;2022-10-16T07:42:30;12.13;;;1.75;;
61025;SDS011;46911;32.650;-16.902;2022-10-16T07:44:33;14.85;;;1.80;;
61025;SDS011;46911;32.650;-16.902;2022-10-16T07:46:34;8.50;;;1.60;;
61025;SDS011;46911;32.650;-16.902;2022-10-16T07:48:36;11.38;;;1.70;;
61025;SDS011;46911;32.650;-16.902;2022-10-16T07:50:39;9.10;;;2.30;;
61025;SDS011;46911;32.650;-16.902;2022-10-16T07:52:40;15.93;;;2.33;;
61025;SDS011;46911;32.650;-16.902;2022-10-16T07:54:41;6.40;;;1.85;;
61025;SDS011;46911;32.650;-16.902;2022-10-16T07:56:45;12.00;;;2.30;;
61025;SDS011;46911;32.650;-16.902;2022-10-16T07:58:49;10.18;;;1.95;;
61025;SDS011;46911;32.650;-16.902;2022-10-16T08:00:52;17.05;;;2.38;;
61025;SDS011;46911;32.650;-16.902;2022-10-16T08:03:01;8.13;;;1.50;;
61025;SDS011;46911;32.650;-16.902;2022-10-16T08:05:02;11.32;;;1.83;;
61025;SDS011;46911;32.650;-16.902;2022-10-16T08:07:03;12.32;;;1.98;;
61025;SDS011;46911;32.650;-16.902;2022-10-16T08:09:04;11.27;;;2.95;;
61025;SDS011;46911;32.650;-16.902;2022-10-16T08:11:06;13.48;;;2.13;;
61025;SDS011;46911;32.650;-16.902;2022-10-16T08:13:10;7.97;;;1.60;;
61025;SDS011;46911;32.650;-16.902;2022-10-16T08:15:11;17.25;;;1.83;;
61025;SDS011;46911;32.650;-16.902;2022-10-16T08:17:14;12.60;;;1.65;;
61025;SDS011;46911;32.650;-16.902;2022-10-16T08:19:16;8.60;;;1.63;;
61025;SDS011;46911;32.650;-16.902;2022-10-16T08:21:20;9.75;;;1.80;;
61025;SDS011;46911;32.650;-16.902;2022-10-16T08:23:23;16.10;;;2.28;;
61025;SDS011;46911;32.650;-16.902;2022-10-16T08:25:26;7.55;;;1.30;;
61025;SDS011;46911;32.650;-16.902;2022-10-16T08:27:32;16.13;;;1.80;;
61025;SDS011;46911;32.650;-16.902;2022-10-16T08:29:34;11.05;;;1.80;;
61025;SDS011;46911;32.650;-16.902;2022-10-16T08:31:35;14.18;;;1.95;;
61025;SDS011;46911;32.650;-16.902;2022-10-16T08:33:36;17.70;;;2.13;;
61025;SDS011;46911;32.650;-16.902;2022-10-16T08:35:38;7.45;;;1.42;;
61025;SDS011;46911;32.650;-16.902;2022-10-16T08:37:43;11.18;;;1.52;;
61025;SDS011;46911;32.650;-16.902;2022-10-16T08:39:46;13.50;;;1.55;;
61025;SDS011;46911;32.650;-16.902;2022-10-16T08:44:27;11.95;;;2.30;;
61025;SDS011;46911;32.650;-16.902;2022-10-16T08:49:01;16.80;;;2.88;;
61025;SDS011;46911;32.650;-16.902;2022-10-16T08:51:04;12.85;;;1.70;;
61025;SDS011;46911;32.650;-16.902;2022-10-16T08:53:11;10.10;;;1.63;;
61025;SDS011;46911;32.650;-16.902;2022-10-16T08:57:40;7.43;;;1.73;;
61025;SDS011;46911;32.650;-16.902;2022-10-16T08:59:41;12.10;;;1.67;;
61025;SDS011;46911;32.650;-16.902;2022-10-16T09:01:45;8.55;;;2.20;;
61025;SDS011;46911;32.650;-16.902;2022-10-16T09:08:25;13.15;;;1.75;;
61025;SDS011;46911;32.650;-16.902;2022-10-16T09:10:56;14.38;;;2.03;;
61025;SDS011;46911;32.650;-16.902;2022-10-16T09:13:03;7.97;;;1.75;;
61025;SDS011;46911;32.650;-16.902;2022-10-16T09:22:27;7.43;;;1.25;;
61025;SDS011;46911;32.650;-16.902;2022-10-16T09:24:29;9.88;;;1.80;;
61025;SDS011;46911;32.650;-16.902;2022-10-16T09:26:33;11.73;;;1.60;;
61025;SDS011;46911;32.650;-16.902;2022-10-16T09:28:34;12.98;;;2.42;;
61025;SDS011;46911;32.650;-16.902;2022-10-16T09:30:35;6.65;;;1.70;;
61025;SDS011;46911;32.650;-16.902;2022-10-16T09:32:37;11.13;;;1.80;;
61025;SDS011;46911;32.650;-16.902;2022-10-16T09:34:52;10.50;;;1.83;;
61025;SDS011;46911;32.650;-16.902;2022-10-16T09:36:56;10.32;;;1.70;;
61025;SDS011;46911;32.650;-16.902;2022-10-16T09:39:09;11.73;;;1.60;;
61025;SDS011;46911;32.650;-16.902;2022-10-16T09:43:22;20.23;;;2.30;;
61025;SDS011;46911;32.650;-16.902;2022-10-16T09:45:24;14.35;;;2.50;;
61025;SDS011;46911;32.650;-16.902;2022-10-16T09:47:28;5.32;;;1.70;;
61025;SDS011;46911;32.650;-16.902;2022-10-16T09:49:30;9.95;;;1.65;;
61025;SDS011;46911;32.650;-16.902;2022-10-16T09:51:32;13.23;;;2.08;;
61025;SDS011;46911;32.650;-16.902;2022-10-16T09:53:42;9.98;;;1.75;;
61025;SDS011;46911;32.650;-16.902;2022-10-16T09:55:53;14.35;;;2.15;;
61025;SDS011;46911;32.650;-16.902;2022-10-16T09:59:58;10.82;;;1.98;;
61025;SDS011;46911;32.650;-16.902;2022-10-16T10:02:02;9.48;;;2.20;;
61025;SDS011;46911;32.650;-16.902;2022-10-16T10:04:14;7.07;;;1.70;;
61025;SDS011;46911;32.650;-16.902;2022-10-16T10:06:23;14.65;;;1.77;;
61025;SDS011;46911;32.650;-16.902;2022-10-16T10:08:30;6.30;;;1.30;;
61025;SDS011;46911;32.650;-16.902;2022-10-16T10:10:34;5.53;;;1.55;;
61025;SDS011;46911;32.650;-16.902;2022-10-16T10:12:43;15.25;;;1.90;;
61025;SDS011;46911;32.650;-16.902;2022-10-16T10:14:51;12.77;;;1.40;;
61025;SDS011;46911;32.650;-16.902;2022-10-16T10:17:18;8.70;;;1.60;;
61025;SDS011;46911;32.650;-16.902;2022-10-16T10:19:23;3.90;;;1.30;;
61025;SDS011;46911;32.650;-16.902;2022-10-16T10:21:27;10.35;;;1.25;;
61025;SDS011;46911;32.650;-16.902;2022-10-16T10:23:32;8.38;;;1.42;;
61025;SDS011;46911;32.650;-16.902;2022-10-16T10:25:39;4.55;;;1.38;;
61025;SDS011;46911;32.650;-16.902;2022-10-16T10:34:37;7.72;;;1.08;;
61025;SDS011;46911;32.650;-16.902;2022-10-16T10:36:49;7.00;;;1.17;;
61025;SDS011;46911;32.650;-16.902;2022-10-16T10:39:04;6.40;;;1.33;;
61025;SDS011;46911;32.650;-16.902;2022-10-16T10:44:03;8.80;;;1.55;;
61025;SDS011;46911;32.650;-16.902;2022-10-16T10:46:04;5.78;;;1.48;;
61025;SDS011;46911;32.650;-16.902;2022-10-16T10:48:15;8.57;;;1.58;;
61025;SDS011;46911;32.650;-16.902;2022-10-16T10:59:08;18.27;;;1.83;;
61025;SDS011;46911;32.650;-16.902;2022-10-16T11:01:16;12.10;;;1.60;;
61025;SDS011;46911;32.650;-16.902;2022-10-16T11:08:17;14.65;;;1.63;;
61025;SDS011;46911;32.650;-16.902;2022-10-16T11:10:21;7.97;;;1.52;;
61025;SDS011;46911;32.650;-16.902;2022-10-16T11:12:29;14.02;;;1.70;;
61025;SDS011;46911;32.650;-16.902;2022-10-16T11:14:49;8.00;;;1.38;;
61025;SDS011;46911;32.650;-16.902;2022-10-16T11:19:42;6.13;;;1.35;;
61025;SDS011;46911;32.650;-16.902;2022-10-16T11:21:54;11.23;;;1.58;;
61025;SDS011;46911;32.650;-16.902;2022-10-16T11:24:16;14.68;;;1.98;;
61025;SDS011;46911;32.650;-16.902;2022-10-16T11:26:39;12.20;;;2.50;;
61025;SDS011;46911;32.650;-16.902;2022-10-16T11:28:53;13.65;;;2.20;;
61025;SDS011;46911;32.650;-16.902;2022-10-16T11:33:24;9.73;;;1.70;;
61025;SDS011;46911;32.650;-16.902;2022-10-16T11:36:06;9.63;;;1.80;;
61025;SDS011;46911;32.650;-16.902;2022-10-16T11:38:15;5.43;;;1.50;;
61025;SDS011;46911;32.650;-16.902;2022-10-16T11:40:32;11.27;;;1.67;;
61025;SDS011;46911;32.650;-16.902;2022-10-16T11:42:41;9.48;;;2.03;;
61025;SDS011;46911;32.650;-16.902;2022-10-16T11:47:26;6.45;;;1.52;;
61025;SDS011;46911;32.650;-16.902;2022-10-16T11:49:28;13.30;;;1.70;;
61025;SDS011;46911;32.650;-16.902;2022-10-16T11:56:40;5.22;;;1.40;;
61025;SDS011;46911;32.650;-16.902;2022-10-16T11:58:56;7.80;;;1.27;;
61025;SDS011;46911;32.650;-16.902;2022-10-16T12:08:12;7.22;;;1.33;;
61025;SDS011;46911;32.650;-16.902;2022-10-16T12:10:24;16.27;;;1.90;;
61025;SDS011;46911;32.650;-16.902;2022-10-16T12:14:36;10.43;;;1.77;;
61025;SDS011;46911;32.650;-16.902;2022-10-16T12:19:13;20.55;;;2.47;;
61025;SDS011;46911;32.650;-16.902;2022-10-16T12:21:16;6.97;;;1.60;;
61025;SDS011;46911;32.650;-16.902;2022-10-16T12:23:19;10.90;;;1.98;;
61025;SDS011;46911;32.650;-16.902;2022-10-16T12:25:26;6.20;;;1.60;;
61025;SDS011;46911;32.650;-16.902;2022-10-16T12:27:31;8.20;;;1.77;;
61025;SDS011;46911;32.650;-16.902;2022-10-16T12:29:36;6.60;;;1.75;;
61025;SDS011;46911;32.650;-16.902;2022-10-16T12:31:43;8.80;;;1.92;;
61025;SDS011;46911;32.650;-16.902;2022-10-16T12:33:59;6.45;;;1.80;;
61025;SDS011;46911;32.650;-16.902;2022-10-16T12:36:08;10.13;;;1.70;;
61025;SDS011;46911;32.650;-16.902;2022-10-16T12:38:25;6.28;;;1.60;;
61025;SDS011;46911;32.650;-16.902;2022-10-16T12:40:29;9.43;;;2.03;;
61025;SDS011;46911;32.650;-16.902;2022-10-16T12:42:35;11.27;;;2.25;;
61025;SDS011;46911;32.650;-16.902;2022-10-16T12:44:36;8.38;;;2.13;;
61025;SDS011;46911;32.650;-16.902;2022-10-16T12:46:38;11.02;;;1.77;;
61025;SDS011;46911;32.650;-16.902;2022-10-16T12:48:41;4.68;;;1.50;;
61025;SDS011;46911;32.650;-16.902;2022-10-16T12:50:44;6.35;;;1.45;;
61025;SDS011;46911;32.650;-16.902;2022-10-16T12:52:45;8.52;;;1.85;;
61025;SDS011;46911;32.650;-16.902;2022-10-16T12:54:48;8.18;;;1.25;;
61025;SDS011;46911;32.650;-16.902;2022-10-16T13:28:06;11.00;;;2.55;;
61025;SDS011;46911;32.650;-16.902;2022-10-16T13:32:19;8.57;;;1.73;;
61025;SDS011;46911;32.650;-16.902;2022-10-16T13:34:21;8.45;;;2.42;;
61025;SDS011;46911;32.650;-16.902;2022-10-16T13:36:24;18.77;;;4.30;;
61025;SDS011;46911;32.650;-16.902;2022-10-16T13:38:31;11.88;;;2.58;;
61025;SDS011;46911;32.650;-16.902;2022-10-16T13:40:34;13.93;;;4.00;;
61025;SDS011;46911;32.650;-16.902;2022-10-16T13:42:37;15.85;;;4.15;;
61025;SDS011;46911;32.650;-16.902;2022-10-16T13:44:48;13.75;;;7.00;;
61025;SDS011;46911;32.650;-16.902;2022-10-16T13:47:00;15.10;;;6.55;;
61025;SDS011;46911;32.650;-16.902;2022-10-16T13:49:10;11.63;;;4.03;;
61025;SDS011;46911;32.650;-16.902;2022-10-16T13:51:17;10.13;;;2.93;;
61025;SDS011;46911;32.650;-16.902;2022-10-16T13:53:24;12.93;;;1.70;;
61025;SDS011;46911;32.650;-16.902;2022-10-16T13:55:24;14.32;;;1.92;;
61025;SDS011;46911;32.650;-16.902;2022-10-16T13:57:30;12.38;;;1.73;;
61025;SDS011;46911;32.650;-16.902;2022-10-16T13:59:35;8.13;;;2.33;;
61025;SDS011;46911;32.650;-16.902;2022-10-16T14:01:42;7.47;;;1.85;;
61025;SDS011;46911;32.650;-16.902;2022-10-16T14:03:46;11.68;;;2.00;;